Flight Track Log - Related Links

Times and Time Zones

All times are in EDT time to prevent confusion due to time zone crossing. See the BOE5 flight status page for this flight to view local times or setup timezone preferences in your user account.

Time Position Orientation Groundspeed Altitude Reporting Facility
EDT Latitude Longitude Course Direction KTS MPH feet Rate Location/Type
Fri 12:55:44 PM 47.1150 -122.4758 20° North 150 173 900  Level Seattle Center
Fri 12:57:00 PM 47.1217 -122.3179 86° East  Level Estimated
Fri 01:04:00 PM 47.1552 -121.4442 86° East  Level Estimated
Fri 01:05:00 PM 47.1594 -121.3193 87° East  Level Estimated
Fri 01:06:00 PM 47.1635 -121.1944 87° East  Level Estimated
Fri 01:07:00 PM 47.1674 -121.0694 87° East  Level Estimated
Fri 01:08:00 PM 47.1713 -120.9445 87° East  Level Estimated
Fri 01:09:00 PM 47.1749 -120.8195 87° East  Level Estimated
Fri 01:10:00 PM 47.1785 -120.6945 88° East  Level Estimated
Fri 01:11:00 PM 47.1819 -120.5695 88° East  Level Estimated
Fri 01:12:00 PM 47.1852 -120.4445 88° East  Level Estimated
Fri 01:13:00 PM 47.1883 -120.3194 88° East  Level Estimated
Fri 01:14:00 PM 47.1913 -120.1944 88° East  Level Estimated
Fri 01:15:00 PM 47.1942 -120.0693 88° East  Level Estimated
Fri 01:16:00 PM 47.1970 -119.9443 88° East  Level Estimated
Fri 01:17:00 PM 47.1996 -119.8192 88° East  Level Estimated
Fri 01:18:00 PM 47.2020 -119.6941 88° East  Level Estimated
Fri 01:19:00 PM 47.2043 -119.5689 88° East  Level Estimated
Fri 01:20:00 PM 47.2065 -119.4438 88° East  Level Estimated
Fri 01:21:00 PM 47.2086 -119.3191 89° East  Level Estimated
Fri 01:22:00 PM 47.2086 -119.3191 13° North  Level Estimated
Fri 01:23:00 PM 47.2086 -119.3191 13° North  Level Estimated
Fri 01:24:00 PM 47.2086 -119.3191 13° North  Level Estimated
Fri 01:25:00 PM 47.2086 -119.3191 13° North  Level Estimated
Fri 01:26:00 PM 47.2086 -119.3191 13° North  Level Estimated
Fri 01:27:00 PM 47.2086 -119.3191 13° North  Level Estimated
Fri 01:28:00 PM 47.2086 -119.3191 13° North  Level Estimated
Fri 01:29:00 PM 47.2086 -119.3191 13° North  Level Estimated
Fri 01:30:00 PM 47.2086 -119.3191 13° North  Level Estimated
Fri 01:31:00 PM 47.2086 -119.3191 13° North  Level Estimated
Fri 01:31:22 PM 47.4989 -122.2719 142° Southeast 163 188 2,400  Level Seattle Center
Fri 01:31:54 PM 47.4756 -122.2431 140° Southeast 188 216 3,800 2,361 Climbing Seattle Center
Fri 01:32:00 PM 47.2086 -119.3191 13° North  Level Estimated
Fri 01:32:23 PM 47.4506 -122.2133 141° Southeast 260 299 4,800  Level Seattle Center
Fri 01:32:55 PM 47.4389 -122.1533 106° East 283 326 6,600 3,344 Climbing Seattle Center
Fri 01:33:00 PM 47.2086 -119.3191 13° North  Level Estimated
Fri 01:33:24 PM 47.4383 -122.0956 91° East 323 372 8,200  Level Seattle Center
Fri 01:33:56 PM 47.4369 -122.0267 92° East 308 354 10,100 2,936 Climbing Seattle Center
Fri 01:34:00 PM 47.2086 -119.3191 13° North  Level Estimated
Fri 01:34:58 PM 47.4333 -121.8917 92° East 329 379 12,800  Level Seattle Center
Fri 01:35:00 PM 47.2086 -119.3191 13° North  Level Estimated
Fri 01:35:59 PM 47.4306 -121.7522 92° East 336 387 13,000  Level Seattle Center
Fri 01:36:00 PM 47.2086 -119.3191 13° North  Level Estimated
Fri 01:37:00 PM 47.4214 -121.6181 96° East 305 351 13,000  Level Seattle Center
Fri 01:38:01 PM 47.4106 -121.4944 97° East 306 352 13,000 738 Level Seattle Center
Fri 01:39:02 PM 47.4247 -121.3622 81° East 327 376 14,500 1,525 Climbing Seattle Center
Fri 01:40:03 PM 47.4422 -121.2161 80° East 354 407 16,100 780 Climbing Seattle Center
Fri 01:41:05 PM 47.4556 -121.0869 81° East 323 372 16,100 -49 Level Seattle Center
Fri 01:42:06 PM 47.4522 -120.9822 93° East 255 293 16,000 -49 Descending Seattle Center
Fri 01:43:07 PM 47.4378 -120.8894 103° East 233 268 16,000 -246 Level Seattle Center
Fri 01:44:08 PM 47.4250 -120.7975 102° East 236 272 15,500 -934 Descending Seattle Center
Fri 01:45:09 PM 47.4111 -120.7036 102° East 233 268 14,100 -639 Descending Seattle Center
Fri 01:46:10 PM 47.3956 -120.6003 103° East 218 251 14,200 -49 Climbing Seattle Center
Fri 01:47:11 PM 47.3833 -120.5136 102° East 217 250 14,000 541 Descending Seattle Center
Fri 01:48:12 PM 47.3686 -120.4308 105° East 200 230 15,300 829 Climbing Seattle Center
Fri 01:49:14 PM 47.3472 -120.3433 110° East 229 264 15,700 -341 Climbing Seattle Center
Fri 01:50:15 PM 47.3203 -120.2539 114° Southeast 239 275 14,600 -984 Descending Seattle Center
Fri 01:51:16 PM 47.2800 -120.1686 125° Southeast 256 295 13,700 -1,377 Descending Seattle Center
Fri 01:52:17 PM 47.2547 -120.0506 107° East 286 329 11,800 -1,820 Descending Seattle Center
Fri 01:53:18 PM 47.2636 -119.9214 84° East 313 360 10,000 -1,770 Descending Seattle Center
Fri 01:54:19 PM 47.2747 -119.7903 83° East 321 369 8,200 -1,426 Descending Seattle Center
Fri 01:55:20 PM 47.2778 -119.6633 88° East 312 359 7,100 -885 Descending Seattle Center
Fri 01:56:21 PM 47.2686 -119.5458 97° East 291 335 6,400 -738 Descending Seattle Center
Fri 01:57:22 PM 47.2786 -119.4314 83° East 263 303 5,600 -927 Descending Seattle Center
Fri 01:58:24 PM 47.3064 -119.3583 61° Northeast 208 239 4,500 -1,344 Descending Seattle Center
Fri 01:59:27 PM 47.2661 -119.3514 173° South 169 194 2,800 -1,597 Descending Seattle Center
Fri 02:00:28 PM 47.2217 -119.3244 158° South 162 186 1,200 -787 Descending Seattle Center
Fri 02:01:29 PM 47.1847 -119.3078 163° South 159 183 1,200  Level Seattle Center
Fri 02:03:00 PM 47.2000 -119.3167 161° South  Level FlightAware Approximate

Login

Don't have an account? Register now (free) for customized features, flight alerts, and more!